createdAt,value
2018-08-08T00:01:48.384Z,19.10
2018-08-08T00:04:16.954Z,19.10
2018-08-08T00:06:45.627Z,19.10
2018-08-08T00:14:41.850Z,19.20
2018-08-08T00:17:10.680Z,19.20
2018-08-08T00:19:39.283Z,19.20
2018-08-08T00:24:36.062Z,19.30
2018-08-08T00:27:04.763Z,19.20
2018-08-08T00:29:33.335Z,19.20
2018-08-08T00:36:58.801Z,19.40
2018-08-08T00:39:27.358Z,19.30
2018-08-08T00:41:55.973Z,19.40
2018-08-08T00:44:24.675Z,19.50
2018-08-08T00:46:53.286Z,19.50
2018-08-08T00:49:21.940Z,19.50
2018-08-08T00:51:50.659Z,19.60
2018-08-08T00:54:19.243Z,19.60
2018-08-08T00:56:47.787Z,19.60
2018-08-08T00:59:16.370Z,19.70
2018-08-08T01:01:46.187Z,19.70
2018-08-08T01:04:14.783Z,19.70
2018-08-08T01:06:43.382Z,19.70
2018-08-08T01:09:12.104Z,19.70
2018-08-08T01:14:09.039Z,19.70
2018-08-08T01:16:37.669Z,19.80
2018-08-08T01:19:06.251Z,19.60
2018-08-08T01:21:34.834Z,19.60
2018-08-08T01:24:03.459Z,19.60
2018-08-08T01:26:32.031Z,19.60
2018-08-08T01:29:00.619Z,19.60
2018-08-08T01:31:29.207Z,19.60
2018-08-08T01:33:57.770Z,19.60
2018-08-08T01:36:26.379Z,19.60
2018-08-08T01:38:54.990Z,19.60
2018-08-08T01:41:23.855Z,19.60
2018-08-08T01:43:52.407Z,19.50
2018-08-08T01:46:21.008Z,19.50
2018-08-08T01:48:49.578Z,19.50
2018-08-08T01:51:18.277Z,19.50
2018-08-08T01:53:46.860Z,19.50
2018-08-08T01:56:15.471Z,19.50
2018-08-08T01:58:44.042Z,19.40
2018-08-08T02:01:12.707Z,19.30
2018-08-08T02:03:41.250Z,19.30
2018-08-08T02:06:09.801Z,19.30
2018-08-08T02:08:38.377Z,19.40
2018-08-08T02:11:07.031Z,19.30
2018-08-08T02:13:35.733Z,19.30
2018-08-08T02:16:04.458Z,19.30
2018-08-08T02:18:33.275Z,19.30
2018-08-08T02:21:01.879Z,19.30
2018-08-08T02:23:30.479Z,19.20
2018-08-08T02:25:59.046Z,19.20
2018-08-08T02:28:27.705Z,19.20
2018-08-08T02:30:56.355Z,19.20
2018-08-08T02:33:24.914Z,19.20
2018-08-08T02:35:53.823Z,19.10
2018-08-08T02:38:22.795Z,19.10
2018-08-08T02:40:51.375Z,19.10
2018-08-08T02:43:19.959Z,19.00
2018-08-08T02:45:48.813Z,19.00
2018-08-08T02:50:45.623Z,18.90
2018-08-08T02:53:14.420Z,19.00
2018-08-08T02:55:43.083Z,19.00
2018-08-08T02:58:11.690Z,19.00
2018-08-08T03:00:40.320Z,19.10
2018-08-08T03:03:08.933Z,19.20
2018-08-08T03:05:37.515Z,19.30
2018-08-08T03:08:06.147Z,19.20
2018-08-08T03:10:34.781Z,19.20
2018-08-08T03:13:03.383Z,19.10
2018-08-08T03:15:31.979Z,19.20
2018-08-08T03:18:00.536Z,19.20
2018-08-08T03:20:29.116Z,19.20
2018-08-08T03:22:57.705Z,19.20
2018-08-08T03:25:26.278Z,19.30
2018-08-08T03:27:55.007Z,19.30
2018-08-08T03:30:23.970Z,19.20
2018-08-08T03:32:52.612Z,19.20
2018-08-08T03:37:50.267Z,19.20
2018-08-08T03:40:19.336Z,19.20
2018-08-08T03:42:47.973Z,19.10
2018-08-08T03:47:45.295Z,19.20
2018-08-08T03:50:14.179Z,19.30
2018-08-08T03:52:44.065Z,19.40
2018-08-08T03:55:13.190Z,19.40
2018-08-08T03:57:42.182Z,19.40
2018-08-08T04:02:40.780Z,19.60
2018-08-08T04:07:38.063Z,19.70
2018-08-08T04:10:07.662Z,19.70
2018-08-08T04:12:36.559Z,19.80
2018-08-08T04:15:10.786Z,19.80
2018-08-08T04:17:39.365Z,19.90
2018-08-08T04:20:08.947Z,19.80
2018-08-08T04:22:37.699Z,19.90
2018-08-08T04:25:07.910Z,20.00
2018-08-08T04:27:36.504Z,20.00
2018-08-08T04:30:08.344Z,20.00
2018-08-08T04:32:37.199Z,20.10
2018-08-08T04:35:06.011Z,20.10
2018-08-08T04:37:34.771Z,20.10
2018-08-08T04:40:03.510Z,20.20
2018-08-08T04:45:00.547Z,20.30
2018-08-08T04:47:29.117Z,20.40
2018-08-08T04:49:57.801Z,20.50
2018-08-08T04:52:26.494Z,20.50
2018-08-08T04:54:55.271Z,20.60
2018-08-08T04:57:23.932Z,20.50
2018-08-08T04:59:52.603Z,20.60
2018-08-08T05:04:49.724Z,20.70
2018-08-08T05:07:18.323Z,20.70
2018-08-08T05:09:46.910Z,20.80
2018-08-08T05:12:15.542Z,20.90
2018-08-08T05:14:44.099Z,20.90
2018-08-08T05:19:41.204Z,21.10
2018-08-08T05:22:09.818Z,21.10
2018-08-08T05:24:38.418Z,21.20
2018-08-08T05:27:07.071Z,21.30
2018-08-08T05:29:35.675Z,21.30
2018-08-08T05:32:04.293Z,21.40
2018-08-08T05:37:01.291Z,21.50
2018-08-08T05:39:29.959Z,21.50
2018-08-08T05:41:58.638Z,21.50
2018-08-08T05:44:27.235Z,21.50
2018-08-08T05:46:55.878Z,21.50
2018-08-08T05:49:24.596Z,21.60
2018-08-08T05:51:53.186Z,21.70
2018-08-08T05:54:21.781Z,21.70
2018-08-08T05:56:50.374Z,21.80
2018-08-08T05:59:18.999Z,21.80
2018-08-08T06:01:47.611Z,21.80
2018-08-08T06:04:16.279Z,21.90
2018-08-08T06:06:45.040Z,21.90
2018-08-08T06:09:13.605Z,22.00
2018-08-08T06:11:42.215Z,22.00
2018-08-08T06:14:10.878Z,22.10
2018-08-08T06:16:39.467Z,22.10
2018-08-08T06:19:08.232Z,22.20
2018-08-08T06:21:36.939Z,22.30
2018-08-08T06:24:05.779Z,22.30
2018-08-08T06:26:34.459Z,22.40
2018-08-08T06:29:03.181Z,22.50
2018-08-08T06:31:31.814Z,22.60
2018-08-08T06:34:00.399Z,22.70
2018-08-08T06:36:29.074Z,22.80
2018-08-08T06:38:57.720Z,22.80
2018-08-08T06:41:26.350Z,22.90
2018-08-08T06:43:54.966Z,23.00
2018-08-08T06:46:23.575Z,23.00
2018-08-08T06:48:52.127Z,23.10
2018-08-08T06:51:20.751Z,23.20
2018-08-08T06:53:49.626Z,23.30
2018-08-08T06:56:18.251Z,23.50
2018-08-08T06:58:46.860Z,23.50
2018-08-08T07:03:43.795Z,23.70
2018-08-08T07:06:12.418Z,23.80
2018-08-08T07:08:40.994Z,23.90
2018-08-08T07:13:38.067Z,24.00
2018-08-08T07:16:06.721Z,24.10
2018-08-08T07:18:35.298Z,24.30
2018-08-08T07:21:03.950Z,24.50
2018-08-08T07:23:32.572Z,24.60
2018-08-08T07:26:01.189Z,24.80
2018-08-08T07:30:58.214Z,24.90
2018-08-08T07:33:26.855Z,24.90
2018-08-08T07:35:55.534Z,25.10
2018-08-08T07:40:52.419Z,25.30
2018-08-08T07:43:21.223Z,25.30
2018-08-08T07:45:49.947Z,25.40
2018-08-08T07:48:18.523Z,25.40
2018-08-08T07:50:47.118Z,25.30
2018-08-08T07:53:15.686Z,25.20
2018-08-08T07:55:44.304Z,25.30
2018-08-08T07:58:13.018Z,25.20
2018-08-08T08:00:41.591Z,25.30
2018-08-08T08:03:10.222Z,25.40
2018-08-08T08:06:22.774Z,25.50
2018-08-08T08:08:51.331Z,25.70
2018-08-08T08:11:19.906Z,26.00
2018-08-08T08:13:49.310Z,26.30
2018-08-08T08:16:18.146Z,26.50
2018-08-08T08:18:46.711Z,26.60
2018-08-08T08:21:15.315Z,26.80
2018-08-08T08:23:43.870Z,27.00
2018-08-08T08:26:12.471Z,27.20
2018-08-08T08:28:41.058Z,27.10
2018-08-08T08:31:09.662Z,27.10
2018-08-08T08:33:38.242Z,27.20
2018-08-08T08:36:06.869Z,27.30
2018-08-08T08:38:35.480Z,27.40
2018-08-08T08:41:04.135Z,27.50
2018-08-08T08:43:32.711Z,27.50
2018-08-08T08:46:01.260Z,27.60
2018-08-08T08:48:29.990Z,27.50
2018-08-08T08:50:58.539Z,27.60
2018-08-08T08:53:27.077Z,27.50
2018-08-08T08:55:55.635Z,27.60
2018-08-08T08:58:24.367Z,27.80
2018-08-08T09:00:52.951Z,27.90
2018-08-08T09:03:21.513Z,27.90
2018-08-08T09:05:50.371Z,28.30
2018-08-08T09:08:18.986Z,28.40
2018-08-08T09:10:47.523Z,28.60
2018-08-08T09:13:16.074Z,28.60
2018-08-08T09:15:44.731Z,28.70
2018-08-08T09:18:13.277Z,28.90
2018-08-08T09:20:42.095Z,29.10
2018-08-08T09:23:10.753Z,29.20
2018-08-08T09:25:39.315Z,29.20
2018-08-08T09:28:07.904Z,29.20
2018-08-08T09:30:36.468Z,29.30
2018-08-08T09:33:10.279Z,29.60
2018-08-08T09:35:38.822Z,29.70
2018-08-08T09:38:07.409Z,29.80
2018-08-08T09:40:36.531Z,29.80
2018-08-08T09:43:05.122Z,29.80
2018-08-08T09:45:33.720Z,29.60
2018-08-08T09:48:02.370Z,29.50
2018-08-08T09:50:30.915Z,29.80
2018-08-08T09:52:59.703Z,30.10
2018-08-08T09:55:28.269Z,30.20
2018-08-08T09:57:56.851Z,30.20
2018-08-08T10:00:29.632Z,30.20
2018-08-08T10:03:03.693Z,30.40
2018-08-08T10:05:32.350Z,30.50
2018-08-08T10:08:00.900Z,30.70
2018-08-08T10:10:29.450Z,30.70
2018-08-08T10:12:58.001Z,30.80
2018-08-08T10:15:26.586Z,30.80
2018-08-08T10:17:55.239Z,31.00
2018-08-08T10:20:24.197Z,31.20
2018-08-08T10:22:53.021Z,31.30
2018-08-08T10:25:21.670Z,31.40
2018-08-08T10:27:50.219Z,31.40
2018-08-08T10:30:18.762Z,31.10
2018-08-08T10:32:47.313Z,31.00
2018-08-08T10:35:15.864Z,31.10
2018-08-08T10:37:44.531Z,31.10
2018-08-08T10:40:13.177Z,31.30
2018-08-08T10:42:41.740Z,31.10
2018-08-08T10:45:10.490Z,30.80
2018-08-08T10:47:39.116Z,31.10
2018-08-08T10:50:07.703Z,31.10
2018-08-08T10:52:36.277Z,30.90
2018-08-08T10:55:06.589Z,30.70
2018-08-08T10:57:35.190Z,30.90
2018-08-08T11:00:04.891Z,31.20
2018-08-08T11:02:33.452Z,31.50
2018-08-08T11:05:02.087Z,31.60
2018-08-08T11:07:30.619Z,31.60
2018-08-08T11:09:59.190Z,31.80
2018-08-08T11:12:28.101Z,31.50
2018-08-08T11:14:56.655Z,31.40
2018-08-08T11:17:25.217Z,31.70
2018-08-08T11:19:54.141Z,32.00
2018-08-08T11:22:22.715Z,32.10
2018-08-08T11:24:51.356Z,32.10
2018-08-08T11:27:19.916Z,31.50
2018-08-08T11:29:48.799Z,31.70
2018-08-08T11:32:17.430Z,31.50
2018-08-08T11:34:46.016Z,31.80
2018-08-08T11:37:14.571Z,32.20
2018-08-08T11:39:43.135Z,32.20
2018-08-08T11:42:11.963Z,32.40
2018-08-08T11:44:40.514Z,32.40
2018-08-08T11:47:09.299Z,32.40
2018-08-08T11:49:37.854Z,32.80
2018-08-08T11:52:06.837Z,33.10
2018-08-08T11:54:35.371Z,33.00
2018-08-08T11:57:03.962Z,33.10
2018-08-08T11:59:32.559Z,33.00
2018-08-08T12:02:01.111Z,32.90
2018-08-08T12:04:30.100Z,33.00
2018-08-08T12:06:58.653Z,33.10
2018-08-08T12:09:27.204Z,33.20
2018-08-08T12:11:55.759Z,33.40
2018-08-08T12:14:24.309Z,33.40
2018-08-08T12:16:52.873Z,33.10
2018-08-08T12:19:21.467Z,33.20
2018-08-08T12:21:50.055Z,32.90
2018-08-08T12:24:18.844Z,33.10
2018-08-08T12:26:47.423Z,33.30
2018-08-08T12:29:15.971Z,33.50
2018-08-08T12:31:44.511Z,33.60
2018-08-08T12:34:13.068Z,33.50
2018-08-08T12:36:42.065Z,33.60
2018-08-08T12:39:12.081Z,33.60
2018-08-08T12:41:40.631Z,33.70
2018-08-08T12:44:09.201Z,34.10
2018-08-08T12:46:37.902Z,34.20
2018-08-08T12:49:06.442Z,34.70
2018-08-08T12:51:35.006Z,34.60
2018-08-08T12:54:03.577Z,34.20
2018-08-08T12:56:32.175Z,33.90
2018-08-08T12:59:00.726Z,33.60
2018-08-08T13:01:29.278Z,33.60
2018-08-08T13:03:57.846Z,33.90
2018-08-08T13:06:26.481Z,33.80
2018-08-08T13:08:55.188Z,34.30
2018-08-08T13:11:23.747Z,34.30
2018-08-08T13:13:52.495Z,34.30
2018-08-08T13:16:21.126Z,34.40
2018-08-08T13:18:49.683Z,34.00
2018-08-08T13:21:18.251Z,33.90
2018-08-08T13:23:46.913Z,33.80
2018-08-08T13:26:15.430Z,34.00
2018-08-08T13:28:43.996Z,34.20
2018-08-08T13:31:12.883Z,33.90
2018-08-08T13:33:41.440Z,33.70
2018-08-08T13:36:10.037Z,33.40
2018-08-08T13:38:38.593Z,33.00
2018-08-08T13:41:07.499Z,32.70
2018-08-08T13:43:36.395Z,32.50
2018-08-08T13:46:05.181Z,32.80
2018-08-08T13:48:33.881Z,32.70
2018-08-08T13:51:02.578Z,33.10
2018-08-08T13:53:31.130Z,33.60
2018-08-08T13:55:59.699Z,34.20
2018-08-08T13:58:28.280Z,33.70
2018-08-08T14:00:57.061Z,33.50
2018-08-08T14:03:25.633Z,33.70
2018-08-08T14:05:54.487Z,33.50
2018-08-08T14:08:23.070Z,33.40
2018-08-08T14:10:51.649Z,33.50
2018-08-08T14:13:20.409Z,33.20
2018-08-08T14:15:49.062Z,33.30
2018-08-08T14:18:17.594Z,33.10
2018-08-08T14:20:46.240Z,32.90
2018-08-08T14:23:15.303Z,33.10
2018-08-08T14:25:43.883Z,33.20
2018-08-08T14:28:12.443Z,33.30
2018-08-08T14:30:41.008Z,33.40
2018-08-08T14:33:09.603Z,33.50
2018-08-08T14:35:38.298Z,33.40
2018-08-08T14:40:35.075Z,33.70
2018-08-08T14:43:03.717Z,33.60
2018-08-08T14:45:32.294Z,33.00
2018-08-08T14:48:00.835Z,32.70
2018-08-08T14:50:29.407Z,32.60
2018-08-08T14:52:57.963Z,32.40
2018-08-08T14:55:26.522Z,31.90
2018-08-08T14:57:55.188Z,31.80
2018-08-08T15:00:23.708Z,31.90
2018-08-08T15:02:52.632Z,32.10
2018-08-08T15:05:21.215Z,31.80
2018-08-08T15:07:49.832Z,31.80
2018-08-08T15:10:18.424Z,31.40
2018-08-08T15:12:47.001Z,31.30
2018-08-08T15:15:15.555Z,31.10
2018-08-08T15:17:44.262Z,31.20
2018-08-08T15:20:13.233Z,31.30
2018-08-08T15:22:41.850Z,31.30
2018-08-08T15:25:10.803Z,30.60
2018-08-08T15:27:39.523Z,30.30
2018-08-08T15:30:10.339Z,30.00
2018-08-08T15:32:39.189Z,29.90
2018-08-08T15:35:07.771Z,29.80
2018-08-08T15:37:37.075Z,29.70
2018-08-08T15:40:06.523Z,29.70
2018-08-08T15:42:35.106Z,29.60
2018-08-08T15:45:04.220Z,29.30
2018-08-08T15:47:32.777Z,29.00
2018-08-08T15:50:01.400Z,29.00
2018-08-08T15:52:29.959Z,28.90
2018-08-08T15:54:58.721Z,28.90
2018-08-08T15:57:27.315Z,28.80
2018-08-08T15:59:55.864Z,28.80
2018-08-08T16:02:24.434Z,28.70
2018-08-08T16:04:52.999Z,28.60
2018-08-08T16:07:21.569Z,28.40
2018-08-08T16:09:50.106Z,28.30
2018-08-08T16:12:18.746Z,28.20
2018-08-08T16:14:47.327Z,28.20
2018-08-08T16:17:15.927Z,28.10
2018-08-08T16:19:44.498Z,27.90
2018-08-08T16:22:13.187Z,27.90
2018-08-08T16:24:41.743Z,27.90
2018-08-08T16:27:10.359Z,27.80
2018-08-08T16:29:39.134Z,27.90
2018-08-08T16:32:07.771Z,27.80
2018-08-08T16:34:36.533Z,27.80
2018-08-08T16:37:05.207Z,27.70
2018-08-08T16:39:33.759Z,27.70
2018-08-08T16:42:02.325Z,27.60
2018-08-08T16:44:31.115Z,27.60
2018-08-08T16:46:59.936Z,27.60
2018-08-08T16:49:28.590Z,27.50
2018-08-08T16:51:57.143Z,27.40
2018-08-08T16:54:25.686Z,27.40
2018-08-08T16:56:54.362Z,27.40
2018-08-08T16:59:22.939Z,27.30
2018-08-08T17:01:51.538Z,27.30
2018-08-08T17:04:20.250Z,27.20
2018-08-08T17:06:48.862Z,27.20
2018-08-08T17:09:17.423Z,27.10
2018-08-08T17:11:46.006Z,27.10
2018-08-08T17:14:14.619Z,27.00
2018-08-08T17:16:43.427Z,27.00
2018-08-08T17:19:12.024Z,27.00
2018-08-08T17:21:40.895Z,26.90
2018-08-08T17:24:09.653Z,26.90
2018-08-08T17:26:38.196Z,26.80
2018-08-08T17:29:06.747Z,26.90
2018-08-08T17:31:35.350Z,26.80
2018-08-08T17:34:03.971Z,26.80
2018-08-08T17:36:32.548Z,26.80
2018-08-08T17:39:01.492Z,26.70
2018-08-08T17:41:30.111Z,26.70
2018-08-08T17:43:58.997Z,26.60
2018-08-08T17:46:27.483Z,26.60
2018-08-08T17:48:56.106Z,26.60
2018-08-08T17:51:24.691Z,26.60
2018-08-08T17:53:53.283Z,26.50
2018-08-08T17:56:21.916Z,26.50
2018-08-08T17:58:50.811Z,26.50
2018-08-08T18:01:19.391Z,26.50
2018-08-08T18:03:47.941Z,26.50
2018-08-08T18:06:16.538Z,26.50
2018-08-08T18:08:45.115Z,26.40
2018-08-08T18:11:13.679Z,26.40
2018-08-08T18:13:42.480Z,26.40
2018-08-08T18:16:11.071Z,26.30
2018-08-08T18:18:39.641Z,26.30
2018-08-08T18:21:08.452Z,26.30
2018-08-08T18:23:37.063Z,26.20
2018-08-08T18:26:05.792Z,26.20
2018-08-08T18:28:34.362Z,26.20
2018-08-08T18:31:03.074Z,26.20
2018-08-08T18:33:31.623Z,26.10
2018-08-08T18:36:00.176Z,26.10
2018-08-08T18:38:28.768Z,26.10
2018-08-08T18:40:57.318Z,26.00
2018-08-08T18:43:25.883Z,26.00
2018-08-08T18:45:54.604Z,26.00
2018-08-08T18:48:23.334Z,25.90
2018-08-08T18:50:51.892Z,25.80
2018-08-08T18:53:20.725Z,25.80
2018-08-08T18:55:49.282Z,25.70
2018-08-08T18:58:17.854Z,25.70
2018-08-08T19:00:46.424Z,25.70
2018-08-08T19:03:15.187Z,25.70
2018-08-08T19:05:44.030Z,25.50
2018-08-08T19:08:12.631Z,25.50
2018-08-08T19:10:41.179Z,25.50
2018-08-08T19:13:09.810Z,25.40
2018-08-08T19:15:38.384Z,25.40
2018-08-08T19:18:06.961Z,25.40
2018-08-08T19:20:35.542Z,25.40
2018-08-08T19:23:04.130Z,25.30
2018-08-08T19:25:33.035Z,25.30
2018-08-08T19:28:01.623Z,25.20
2018-08-08T19:30:30.207Z,25.20
2018-08-08T19:32:58.798Z,25.20
2018-08-08T19:35:27.359Z,25.10
2018-08-08T19:37:55.925Z,25.10
2018-08-08T19:40:24.667Z,25.00
2018-08-08T19:42:53.227Z,25.00
2018-08-08T19:45:21.835Z,25.00
2018-08-08T19:47:50.440Z,25.00
2018-08-08T19:50:19.003Z,25.00
2018-08-08T19:52:47.562Z,24.90
2018-08-08T19:55:16.933Z,24.90
2018-08-08T19:57:45.563Z,24.80
2018-08-08T20:00:14.154Z,24.80
2018-08-08T20:02:42.718Z,24.80
2018-08-08T20:05:11.266Z,24.80
2018-08-08T20:07:39.902Z,24.80
2018-08-08T20:10:08.519Z,24.80
2018-08-08T20:12:37.062Z,24.80
2018-08-08T20:15:05.864Z,24.70
2018-08-08T20:17:34.434Z,24.70
2018-08-08T20:20:03.096Z,24.70
2018-08-08T20:22:31.655Z,24.60
2018-08-08T20:25:00.268Z,24.60
2018-08-08T20:27:28.806Z,24.60
2018-08-08T20:29:57.382Z,24.50
2018-08-08T20:32:25.946Z,24.60
2018-08-08T20:34:54.524Z,24.50
2018-08-08T20:37:23.212Z,24.60
2018-08-08T20:39:51.856Z,24.50
2018-08-08T20:42:20.483Z,24.50
2018-08-08T20:44:49.092Z,24.50
2018-08-08T20:47:17.636Z,24.40
2018-08-08T20:49:46.185Z,24.40
2018-08-08T20:52:14.727Z,24.40
2018-08-08T20:54:43.324Z,24.40
2018-08-08T20:57:11.893Z,24.40
2018-08-08T20:59:40.439Z,24.40
2018-08-08T21:02:09.111Z,24.40
2018-08-08T21:04:37.662Z,24.40
2018-08-08T21:07:06.267Z,24.40
2018-08-08T21:09:34.891Z,24.30
2018-08-08T21:12:03.491Z,24.30
2018-08-08T21:14:32.077Z,24.30
2018-08-08T21:17:00.643Z,24.30
2018-08-08T21:19:29.200Z,24.20
2018-08-08T21:21:57.874Z,24.20
2018-08-08T21:24:26.436Z,24.20
2018-08-08T21:26:54.993Z,24.20
2018-08-08T21:29:23.974Z,24.20
2018-08-08T21:31:52.546Z,24.20
2018-08-08T21:34:21.104Z,24.20
2018-08-08T21:36:49.655Z,24.10
2018-08-08T21:39:18.239Z,24.20
2018-08-08T21:41:46.861Z,24.10
2018-08-08T21:44:15.411Z,24.10
2018-08-08T21:46:44.163Z,24.10
2018-08-08T21:49:12.816Z,24.00
2018-08-08T21:51:41.406Z,24.00
2018-08-08T21:54:21.102Z,24.00
2018-08-08T21:57:00.847Z,24.00
2018-08-08T21:59:41.414Z,23.90
2018-08-08T22:02:21.826Z,23.90
2018-08-08T22:05:01.987Z,23.90
2018-08-08T22:07:42.507Z,23.90
2018-08-08T22:10:22.182Z,23.90
2018-08-08T22:13:02.021Z,23.80
2018-08-08T22:15:41.802Z,23.80
2018-08-08T22:18:21.542Z,23.80
2018-08-08T22:20:50.180Z,23.80
2018-08-08T22:23:18.825Z,23.80
2018-08-08T22:25:47.584Z,23.80
2018-08-08T22:28:16.200Z,23.80
2018-08-08T22:30:44.796Z,23.80
2018-08-08T22:33:13.434Z,23.80
2018-08-08T22:35:42.031Z,23.80
2018-08-08T22:38:10.926Z,23.80
2018-08-08T22:40:39.922Z,23.80
2018-08-08T22:43:08.652Z,23.80
2018-08-08T22:45:37.279Z,23.80
2018-08-08T22:48:06.612Z,23.80
2018-08-08T22:50:35.203Z,23.80
2018-08-08T22:53:03.854Z,23.90
2018-08-08T22:55:32.458Z,23.90
2018-08-08T22:58:01.142Z,23.80
2018-08-08T23:00:29.757Z,23.80
2018-08-08T23:02:58.362Z,23.80
2018-08-08T23:05:26.975Z,23.80
2018-08-08T23:09:24.769Z,23.80
2018-08-08T23:11:53.566Z,23.80
2018-08-08T23:14:22.160Z,23.80
2018-08-08T23:16:50.768Z,23.80
2018-08-08T23:19:19.367Z,23.80
2018-08-08T23:21:47.995Z,23.80
2018-08-08T23:24:16.590Z,23.80
2018-08-08T23:26:45.183Z,23.80
2018-08-08T23:29:13.902Z,23.80
2018-08-08T23:31:42.500Z,23.80
2018-08-08T23:34:11.099Z,23.80
2018-08-08T23:36:39.698Z,23.80
2018-08-08T23:39:09.227Z,23.80
2018-08-08T23:41:37.870Z,23.70
2018-08-08T23:44:25.085Z,23.70
2018-08-08T23:46:53.644Z,23.70
2018-08-08T23:55:22.596Z,23.60
2018-08-08T23:57:51.147Z,23.60
